createdAt,value
2023-04-11T00:01:20.864Z,97364.34
2023-04-11T00:06:23.587Z,97340.41
2023-04-11T00:11:25.529Z,97329.44
2023-04-11T00:16:27.452Z,97305.91
2023-04-11T00:21:29.382Z,97289.03
2023-04-11T00:26:31.226Z,97290.38
2023-04-11T00:31:33.227Z,97288.63
2023-04-11T00:36:35.369Z,97299.25
2023-04-11T00:41:37.298Z,97308.63
2023-04-11T00:46:43.180Z,97309.34
2023-04-11T00:51:46.711Z,97323.97
2023-04-11T00:56:48.606Z,97346.28
2023-04-11T01:01:50.655Z,97350.66
2023-04-11T01:06:56.571Z,97348.22
2023-04-11T01:11:59.553Z,97337.47
2023-04-11T01:17:02.429Z,97333.72
2023-04-11T01:22:04.856Z,97320.56
2023-04-11T01:27:06.682Z,97301.47
2023-04-11T01:32:08.504Z,97299.13
2023-04-11T01:37:10.260Z,97282.91
2023-04-11T01:42:13.778Z,97269.91
2023-04-11T01:47:15.638Z,97266.72
2023-04-11T01:52:17.213Z,97262.97
2023-04-11T01:57:18.850Z,97262.03
2023-04-11T02:02:20.741Z,97258.44
2023-04-11T02:07:22.418Z,97253.72
2023-04-11T02:12:24.201Z,97246.97
2023-04-11T02:17:26.598Z,97237.56
2023-04-11T02:22:28.203Z,97229.41
2023-04-11T02:27:29.861Z,97234.09
2023-04-11T02:32:35.842Z,97218.13
2023-04-11T02:37:37.518Z,97209.28
2023-04-11T02:42:42.986Z,97186.28
2023-04-11T02:47:44.913Z,97161.66
2023-04-11T02:52:47.987Z,97155.78
2023-04-11T02:57:51.936Z,97160.63
2023-04-11T03:02:56.784Z,97169.19
2023-04-11T03:07:59.719Z,97167.31
2023-04-11T03:13:11.575Z,97170.31
2023-04-11T03:18:13.431Z,97159.72
2023-04-11T03:23:18.353Z,97163.38
2023-04-11T03:28:20.038Z,97151.03
2023-04-11T03:33:22.112Z,97146.75
2023-04-11T03:38:25.360Z,97147.84
2023-04-11T03:43:27.118Z,97144.97
2023-04-11T03:48:29.926Z,97129.69
2023-04-11T03:53:38.989Z,97119.91
2023-04-11T03:58:56.367Z,97111.28
2023-04-11T04:04:03.194Z,97098.44
2023-04-11T04:09:08.698Z,97094.19
2023-04-11T04:14:22.088Z,97103.47
2023-04-11T04:19:24.048Z,97103.09
2023-04-11T04:24:27.062Z,97102.09
2023-04-11T04:29:58.876Z,97110.53
2023-04-11T04:35:27.976Z,97107.81
2023-04-11T04:40:32.774Z,97107.56
2023-04-11T04:45:38.745Z,97094.06
2023-04-11T04:50:43.542Z,97104.63
2023-04-11T04:55:46.348Z,97102.81
2023-04-11T05:00:55.933Z,97105.59
2023-04-11T05:06:02.710Z,97111.22
2023-04-11T05:11:05.719Z,97109.97
2023-04-11T05:16:08.901Z,97111.16
2023-04-11T05:21:11.804Z,97116.03
2023-04-11T05:26:16.254Z,97107.66
2023-04-11T05:31:19.173Z,97120.31
2023-04-11T05:36:20.950Z,97109.78
2023-04-11T05:41:22.769Z,97112.53
2023-04-11T05:46:24.764Z,97118.84
2023-04-11T05:51:26.509Z,97128.25
2023-04-11T05:56:28.207Z,97130.19
2023-04-11T06:01:30.234Z,97123.88
2023-04-11T06:06:33.924Z,97129.03
2023-04-11T06:11:35.578Z,97143.13
2023-04-11T06:16:38.756Z,97158.81
2023-04-11T06:21:40.728Z,97146.28
2023-04-11T06:26:42.348Z,97139.47
2023-04-11T06:31:44.004Z,97154.34
2023-04-11T06:36:48.123Z,97161.75
2023-04-11T06:41:49.734Z,97166.94
2023-04-11T06:46:59.405Z,97169.88
2023-04-11T06:52:01.233Z,97177.13
2023-04-11T06:57:03.478Z,97177.28
2023-04-11T07:02:05.402Z,97172.06
2023-04-11T07:07:07.149Z,97177.88
2023-04-11T07:12:08.763Z,97184.84
2023-04-11T07:17:13.285Z,97177.66
2023-04-11T07:22:15.074Z,97182.81
2023-04-11T07:27:17.682Z,97178.41
2023-04-11T07:32:19.587Z,97185.88
2023-04-11T07:37:21.626Z,97179.44
2023-04-11T07:42:23.410Z,97162.59
2023-04-11T07:47:25.253Z,97164.72
2023-04-11T07:52:27.142Z,97163.50
2023-04-11T07:57:29.911Z,97160.09
2023-04-11T08:02:33.321Z,97183.06
2023-04-11T08:07:35.548Z,97163.66
2023-04-11T08:12:37.582Z,97194.13
2023-04-11T08:17:41.226Z,97185.00
2023-04-11T08:22:46.994Z,97193.00
2023-04-11T08:27:49.845Z,97196.09
2023-04-11T08:32:51.682Z,97199.84
2023-04-11T08:37:54.234Z,97204.53
2023-04-11T08:43:00.616Z,97200.22
2023-04-11T08:48:02.463Z,97200.13
2023-04-11T08:53:04.455Z,97209.81
2023-04-11T08:58:06.707Z,97209.81
2023-04-11T09:03:10.496Z,97197.28
2023-04-11T09:08:17.214Z,97201.63
2023-04-11T09:13:28.180Z,97184.88
2023-04-11T09:18:33.255Z,97184.69
2023-04-11T09:23:36.120Z,97182.66
2023-04-11T09:28:42.923Z,97176.25
2023-04-11T09:33:55.565Z,97158.47
2023-04-11T09:38:58.318Z,97161.63
2023-04-11T09:44:01.290Z,97153.91
2023-04-11T09:49:03.700Z,97153.19
2023-04-11T09:54:06.696Z,97132.06
2023-04-11T09:59:08.813Z,97128.44
2023-04-11T10:04:14.507Z,97125.53
2023-04-11T10:09:16.904Z,97110.25
2023-04-11T10:14:37.446Z,97119.72
2023-04-11T10:19:39.374Z,97135.88
2023-04-11T10:25:01.157Z,97156.78
2023-04-11T10:30:03.072Z,97136.47
2023-04-11T10:35:17.146Z,97135.81
2023-04-11T10:40:20.799Z,97143.63
2023-04-11T10:45:26.743Z,97143.13
2023-04-11T10:50:31.676Z,97143.56
2023-04-11T10:55:50.657Z,97148.69
2023-04-11T11:01:31.230Z,97158.84
2023-04-11T11:06:38.065Z,97161.16
2023-04-11T11:11:45.026Z,97226.63
2023-04-11T11:16:47.016Z,97260.09
2023-04-11T11:21:51.654Z,97267.50
2023-04-11T11:26:55.706Z,97293.63
2023-04-11T11:31:57.722Z,97322.00
2023-04-11T11:37:09.871Z,97326.28
2023-04-11T11:42:12.057Z,97328.03
2023-04-11T11:47:17.142Z,97326.75
2023-04-11T11:52:42.523Z,97316.19
2023-04-11T11:57:48.502Z,97304.97
2023-04-11T12:02:52.964Z,97303.31
2023-04-11T12:07:55.955Z,97315.59
2023-04-11T12:12:57.832Z,97332.09
2023-04-11T12:17:59.820Z,97336.06
2023-04-11T12:23:01.711Z,97343.03
2023-04-11T12:28:03.777Z,97346.81
2023-04-11T12:33:06.406Z,97346.75
2023-04-11T12:38:08.924Z,97359.72
2023-04-11T12:43:11.501Z,97369.72
2023-04-11T12:48:13.323Z,97368.25
2023-04-11T12:53:15.143Z,97354.44
2023-04-11T12:58:17.088Z,97351.94
2023-04-11T13:03:19.177Z,97344.13
2023-04-11T13:08:21.219Z,97359.69
2023-04-11T13:13:23.122Z,97353.88
2023-04-11T13:18:25.071Z,97363.06
2023-04-11T13:23:26.952Z,97363.06
2023-04-11T13:28:28.833Z,97365.22
2023-04-11T13:33:31.363Z,97354.78
2023-04-11T13:38:33.533Z,97365.69
2023-04-11T13:43:35.320Z,97366.91
2023-04-11T13:48:37.558Z,97371.06
2023-04-11T13:53:39.594Z,97369.22
2023-04-11T13:58:41.728Z,97359.31
2023-04-11T14:03:44.743Z,97350.91
2023-04-11T14:08:48.178Z,97350.72
2023-04-11T14:13:51.110Z,97340.94
2023-04-11T14:18:52.970Z,97333.91
2023-04-11T14:23:55.361Z,97326.94
2023-04-11T14:28:57.432Z,97333.78
2023-04-11T14:33:59.547Z,97339.63
2023-04-11T14:39:07.380Z,97344.88
2023-04-11T14:44:09.549Z,97360.69
2023-04-11T14:49:11.637Z,97361.81
2023-04-11T14:54:13.460Z,97338.53
2023-04-11T14:59:15.401Z,97362.03
2023-04-11T15:04:17.487Z,97365.38
2023-04-11T15:09:21.101Z,97364.34
2023-04-11T15:14:29.270Z,97365.34
2023-04-11T15:19:31.263Z,97361.75
2023-04-11T15:24:33.051Z,97365.56
2023-04-11T15:29:36.453Z,97359.56
2023-04-11T15:34:40.682Z,97362.25
2023-04-11T15:39:43.259Z,97366.94
2023-04-11T15:44:45.137Z,97375.81
2023-04-11T15:49:47.027Z,97373.22
2023-04-11T15:54:48.818Z,97360.06
2023-04-11T15:59:50.605Z,97357.09
2023-04-11T16:04:54.129Z,97347.13
2023-04-11T16:09:56.739Z,97363.50
2023-04-11T16:14:58.601Z,97357.44
2023-04-11T16:20:00.504Z,97367.66
2023-04-11T16:25:06.792Z,97384.91
2023-04-11T16:30:09.578Z,97383.69
2023-04-11T16:35:11.773Z,97383.25
2023-04-11T16:40:13.744Z,97376.78
2023-04-11T16:45:15.691Z,97392.16
2023-04-11T16:50:18.032Z,97380.66
2023-04-11T16:55:19.847Z,97376.59
2023-04-11T17:00:21.853Z,97381.22
2023-04-11T17:05:24.136Z,97394.66
2023-04-11T17:10:26.030Z,97396.16
2023-04-11T17:15:27.917Z,97413.66
2023-04-11T17:20:29.757Z,97425.88
2023-04-11T17:25:32.057Z,97429.97
2023-04-11T17:30:33.930Z,97435.31
2023-04-11T17:35:36.011Z,97440.66
2023-04-11T17:40:39.632Z,97443.09
2023-04-11T17:45:42.964Z,97442.09
2023-04-11T17:50:46.343Z,97450.75
2023-04-11T17:55:48.639Z,97460.94
2023-04-11T18:00:56.689Z,97473.59
2023-04-11T18:05:59.459Z,97476.00
2023-04-11T18:11:01.276Z,97482.28
2023-04-11T18:16:03.453Z,97478.50
2023-04-11T18:21:07.598Z,97490.25
2023-04-11T18:26:09.920Z,97521.44
2023-04-11T18:31:12.122Z,97550.56
2023-04-11T18:36:14.116Z,97561.41
2023-04-11T18:41:17.475Z,97559.81
2023-04-11T18:46:20.048Z,97560.72
2023-04-11T18:51:21.888Z,97556.72
2023-04-11T18:56:23.787Z,97572.13
2023-04-11T19:01:25.986Z,97569.03
2023-04-11T19:06:27.957Z,97559.59
2023-04-11T19:11:29.812Z,97553.66
2023-04-11T19:16:33.102Z,97555.97
2023-04-11T19:21:34.857Z,97554.19
2023-04-11T19:26:36.490Z,97556.94
2023-04-11T19:31:38.152Z,97555.81
2023-04-11T19:36:39.890Z,97556.06
2023-04-11T19:41:44.819Z,97564.91
2023-04-11T19:46:46.732Z,97569.25
2023-04-11T19:51:48.344Z,97549.81
2023-04-11T19:56:53.493Z,97524.16
2023-04-11T20:01:55.346Z,97516.53
2023-04-11T20:07:47.900Z,97516.81
2023-04-11T20:13:04.905Z,97508.25
2023-04-11T20:18:07.636Z,97502.75
2023-04-11T20:23:09.410Z,97503.72
2023-04-11T20:28:11.112Z,97511.28
2023-04-11T20:33:12.745Z,97506.28
2023-04-11T20:38:14.827Z,97500.88
2023-04-11T20:43:17.561Z,97495.41
2023-04-11T20:48:19.882Z,97503.13
2023-04-11T20:53:21.629Z,97494.03
2023-04-11T20:58:23.343Z,97506.34
2023-04-11T21:03:31.032Z,97512.66
2023-04-11T21:08:34.405Z,97513.19
2023-04-11T21:13:36.057Z,97515.81
2023-04-11T21:18:37.656Z,97504.81
2023-04-11T21:23:39.575Z,97512.00
2023-04-11T21:28:41.238Z,97516.38
2023-04-11T21:40:02.592Z,97489.00
2023-04-11T21:45:04.645Z,97490.50
2023-04-11T21:50:09.813Z,97483.28
2023-04-11T21:55:11.999Z,97486.53
2023-04-11T22:00:13.870Z,97490.31
2023-04-11T22:05:17.469Z,97489.88
2023-04-11T22:10:23.663Z,97491.38
2023-04-11T22:15:26.323Z,97480.50
2023-04-11T22:20:28.260Z,97476.59
2023-04-11T22:25:30.285Z,97483.53
2023-04-11T22:30:35.274Z,97484.56
2023-04-11T22:35:36.983Z,97481.13
2023-04-11T22:40:40.187Z,97477.28
2023-04-11T22:45:43.063Z,97481.09
2023-04-11T22:50:52.573Z,97480.56
2023-04-11T22:55:54.392Z,97473.00
2023-04-11T23:00:56.036Z,97477.81
2023-04-11T23:05:57.722Z,97467.13
2023-04-11T23:10:59.524Z,97444.69
2023-04-11T23:16:04.427Z,97445.31
2023-04-11T23:21:11.248Z,97444.03
2023-04-11T23:26:20.647Z,97443.78
2023-04-11T23:31:22.392Z,97427.13
2023-04-11T23:36:24.194Z,97418.00
2023-04-11T23:41:25.879Z,97418.69
2023-04-11T23:46:29.762Z,97414.66
2023-04-11T23:51:31.583Z,97414.41
